sensor_id;sensor_type;location;lat;lon;timestamp;temperature;humidity
20690;DHT22;10504;48.762;8.996;2023-08-24T00:00:42;19.00;99.90
20690;DHT22;10504;48.762;8.996;2023-08-24T00:03:08;19.00;99.90
20690;DHT22;10504;48.762;8.996;2023-08-24T00:05:34;19.10;99.90
20690;DHT22;10504;48.762;8.996;2023-08-24T00:08:07;19.00;99.90
20690;DHT22;10504;48.762;8.996;2023-08-24T00:10:37;19.00;99.90
20690;DHT22;10504;48.762;8.996;2023-08-24T00:13:03;19.10;99.90
20690;DHT22;10504;48.762;8.996;2023-08-24T00:15:29;19.10;99.90
20690;DHT22;10504;48.762;8.996;2023-08-24T00:17:55;19.10;99.90
20690;DHT22;10504;48.762;8.996;2023-08-24T00:20:21;19.00;99.90
20690;DHT22;10504;48.762;8.996;2023-08-24T00:22:47;19.00;99.90
20690;DHT22;10504;48.762;8.996;2023-08-24T00:25:13;19.00;99.90
20690;DHT22;10504;48.762;8.996;2023-08-24T00:27:39;19.00;99.90
20690;DHT22;10504;48.762;8.996;2023-08-24T00:30:07;19.00;99.90
20690;DHT22;10504;48.762;8.996;2023-08-24T00:32:36;19.00;99.90
20690;DHT22;10504;48.762;8.996;2023-08-24T00:35:06;19.00;99.90
20690;DHT22;10504;48.762;8.996;2023-08-24T00:37:32;18.90;99.90
20690;DHT22;10504;48.762;8.996;2023-08-24T00:40:00;18.90;99.90
20690;DHT22;10504;48.762;8.996;2023-08-24T00:42:30;18.90;99.90
20690;DHT22;10504;48.762;8.996;2023-08-24T00:44:57;18.90;99.90
20690;DHT22;10504;48.762;8.996;2023-08-24T00:47:23;18.90;99.90
20690;DHT22;10504;48.762;8.996;2023-08-24T00:49:50;18.80;99.90
20690;DHT22;10504;48.762;8.996;2023-08-24T00:52:16;18.80;99.90
20690;DHT22;10504;48.762;8.996;2023-08-24T00:54:42;18.80;99.90
20690;DHT22;10504;48.762;8.996;2023-08-24T00:57:07;18.80;99.90
20690;DHT22;10504;48.762;8.996;2023-08-24T00:59:34;18.80;99.90
20690;DHT22;10504;48.762;8.996;2023-08-24T01:02:00;18.80;99.90
20690;DHT22;10504;48.762;8.996;2023-08-24T01:04:27;18.80;99.90
20690;DHT22;10504;48.762;8.996;2023-08-24T01:06:52;18.80;99.90
20690;DHT22;10504;48.762;8.996;2023-08-24T01:09:19;18.80;99.90
20690;DHT22;10504;48.762;8.996;2023-08-24T01:11:49;18.80;99.90
20690;DHT22;10504;48.762;8.996;2023-08-24T01:14:35;18.80;99.90
20690;DHT22;10504;48.762;8.996;2023-08-24T01:17:04;18.80;99.90
20690;DHT22;10504;48.762;8.996;2023-08-24T01:19:43;18.80;99.90
20690;DHT22;10504;48.762;8.996;2023-08-24T01:27:33;18.80;99.90
20690;DHT22;10504;48.762;8.996;2023-08-24T01:30:01;18.80;99.90
20690;DHT22;10504;48.762;8.996;2023-08-24T01:32:33;18.70;99.90
20690;DHT22;10504;48.762;8.996;2023-08-24T01:35:02;18.70;99.90
20690;DHT22;10504;48.762;8.996;2023-08-24T01:37:28;18.70;99.90
20690;DHT22;10504;48.762;8.996;2023-08-24T01:40:07;18.70;99.90
20690;DHT22;10504;48.762;8.996;2023-08-24T01:45:11;18.70;99.90
20690;DHT22;10504;48.762;8.996;2023-08-24T01:47:39;18.60;99.90
20690;DHT22;10504;48.762;8.996;2023-08-24T01:50:07;18.60;99.90
20690;DHT22;10504;48.762;8.996;2023-08-24T01:52:34;18.60;99.90
20690;DHT22;10504;48.762;8.996;2023-08-24T01:55:00;18.60;99.90
20690;DHT22;10504;48.762;8.996;2023-08-24T01:57:25;18.60;99.90
20690;DHT22;10504;48.762;8.996;2023-08-24T01:59:51;18.60;99.90
20690;DHT22;10504;48.762;8.996;2023-08-24T02:02:16;18.60;99.90
20690;DHT22;10504;48.762;8.996;2023-08-24T02:04:42;18.60;99.90
20690;DHT22;10504;48.762;8.996;2023-08-24T02:07:08;18.60;99.90
20690;DHT22;10504;48.762;8.996;2023-08-24T02:09:33;18.60;99.90
20690;DHT22;10504;48.762;8.996;2023-08-24T02:11:59;18.60;99.90
20690;DHT22;10504;48.762;8.996;2023-08-24T02:14:25;18.50;99.90
20690;DHT22;10504;48.762;8.996;2023-08-24T02:16:50;18.50;99.90
20690;DHT22;10504;48.762;8.996;2023-08-24T02:19:16;18.50;99.90
20690;DHT22;10504;48.762;8.996;2023-08-24T02:21:41;18.50;99.90
20690;DHT22;10504;48.762;8.996;2023-08-24T02:24:08;18.40;99.90
20690;DHT22;10504;48.762;8.996;2023-08-24T02:26:33;18.40;99.90
20690;DHT22;10504;48.762;8.996;2023-08-24T02:28:59;18.40;99.90
20690;DHT22;10504;48.762;8.996;2023-08-24T02:31:25;18.40;99.90
20690;DHT22;10504;48.762;8.996;2023-08-24T02:33:50;18.40;99.90
20690;DHT22;10504;48.762;8.996;2023-08-24T02:36:16;18.40;99.90
20690;DHT22;10504;48.762;8.996;2023-08-24T02:38:42;18.40;99.90
20690;DHT22;10504;48.762;8.996;2023-08-24T02:41:07;18.40;99.90
20690;DHT22;10504;48.762;8.996;2023-08-24T02:43:34;18.40;99.90
20690;DHT22;10504;48.762;8.996;2023-08-24T02:46:04;18.50;99.90
20690;DHT22;10504;48.762;8.996;2023-08-24T02:48:31;18.50;99.90
20690;DHT22;10504;48.762;8.996;2023-08-24T02:51:00;18.40;99.90
20690;DHT22;10504;48.762;8.996;2023-08-24T02:53:28;18.40;99.90
20690;DHT22;10504;48.762;8.996;2023-08-24T02:55:55;18.50;99.90
20690;DHT22;10504;48.762;8.996;2023-08-24T02:58:21;18.40;99.90
20690;DHT22;10504;48.762;8.996;2023-08-24T03:00:47;18.40;99.90
20690;DHT22;10504;48.762;8.996;2023-08-24T03:03:16;18.40;99.90
20690;DHT22;10504;48.762;8.996;2023-08-24T03:05:59;18.40;99.90
20690;DHT22;10504;48.762;8.996;2023-08-24T03:08:25;18.40;99.90
20690;DHT22;10504;48.762;8.996;2023-08-24T03:10:51;18.40;99.90
20690;DHT22;10504;48.762;8.996;2023-08-24T03:13:17;18.40;99.90
20690;DHT22;10504;48.762;8.996;2023-08-24T03:15:42;18.40;99.90
20690;DHT22;10504;48.762;8.996;2023-08-24T03:18:11;18.40;99.90
20690;DHT22;10504;48.762;8.996;2023-08-24T03:20:36;18.40;99.90
20690;DHT22;10504;48.762;8.996;2023-08-24T03:23:02;18.40;99.90
20690;DHT22;10504;48.762;8.996;2023-08-24T03:25:28;18.40;99.90
20690;DHT22;10504;48.762;8.996;2023-08-24T03:27:54;18.40;99.90
20690;DHT22;10504;48.762;8.996;2023-08-24T03:30:20;18.40;99.90
20690;DHT22;10504;48.762;8.996;2023-08-24T03:32:48;18.40;99.90
20690;DHT22;10504;48.762;8.996;2023-08-24T03:35:13;18.40;99.90
20690;DHT22;10504;48.762;8.996;2023-08-24T03:37:40;18.30;99.90
20690;DHT22;10504;48.762;8.996;2023-08-24T03:40:06;18.30;99.90
20690;DHT22;10504;48.762;8.996;2023-08-24T03:42:32;18.30;99.90
20690;DHT22;10504;48.762;8.996;2023-08-24T03:44:59;18.30;99.90
20690;DHT22;10504;48.762;8.996;2023-08-24T03:47:25;18.30;99.90
20690;DHT22;10504;48.762;8.996;2023-08-24T03:49:50;18.30;99.90
20690;DHT22;10504;48.762;8.996;2023-08-24T03:52:16;18.30;99.90
20690;DHT22;10504;48.762;8.996;2023-08-24T03:54:42;18.40;99.90
20690;DHT22;10504;48.762;8.996;2023-08-24T03:57:07;18.40;99.90
20690;DHT22;10504;48.762;8.996;2023-08-24T03:59:33;18.50;99.90
20690;DHT22;10504;48.762;8.996;2023-08-24T04:01:59;18.50;99.90
20690;DHT22;10504;48.762;8.996;2023-08-24T04:04:28;18.50;99.90
20690;DHT22;10504;48.762;8.996;2023-08-24T04:06:53;18.60;99.90
20690;DHT22;10504;48.762;8.996;2023-08-24T04:09:19;18.60;99.90
20690;DHT22;10504;48.762;8.996;2023-08-24T04:11:44;18.60;99.90
20690;DHT22;10504;48.762;8.996;2023-08-24T04:14:10;18.60;99.90
20690;DHT22;10504;48.762;8.996;2023-08-24T04:16:36;18.60;99.90
20690;DHT22;10504;48.762;8.996;2023-08-24T04:19:01;18.60;99.90
20690;DHT22;10504;48.762;8.996;2023-08-24T04:21:27;18.70;99.90
20690;DHT22;10504;48.762;8.996;2023-08-24T04:23:53;18.70;99.90
20690;DHT22;10504;48.762;8.996;2023-08-24T04:26:18;18.70;99.90
20690;DHT22;10504;48.762;8.996;2023-08-24T04:28:44;18.70;99.90
20690;DHT22;10504;48.762;8.996;2023-08-24T04:31:10;18.70;99.90
20690;DHT22;10504;48.762;8.996;2023-08-24T04:33:35;18.70;99.90
20690;DHT22;10504;48.762;8.996;2023-08-24T04:36:02;18.70;99.90
20690;DHT22;10504;48.762;8.996;2023-08-24T04:38:31;18.70;99.90
20690;DHT22;10504;48.762;8.996;2023-08-24T04:40:57;18.70;99.90
20690;DHT22;10504;48.762;8.996;2023-08-24T04:43:24;18.70;99.90
20690;DHT22;10504;48.762;8.996;2023-08-24T04:45:52;18.70;99.90
20690;DHT22;10504;48.762;8.996;2023-08-24T04:48:21;18.70;99.90
20690;DHT22;10504;48.762;8.996;2023-08-24T04:50:47;18.60;99.90
20690;DHT22;10504;48.762;8.996;2023-08-24T04:53:16;18.60;99.90
20690;DHT22;10504;48.762;8.996;2023-08-24T04:55:42;18.60;99.90
20690;DHT22;10504;48.762;8.996;2023-08-24T04:58:08;18.60;99.90
20690;DHT22;10504;48.762;8.996;2023-08-24T05:00:35;18.70;99.90
20690;DHT22;10504;48.762;8.996;2023-08-24T05:03:02;18.70;99.90
20690;DHT22;10504;48.762;8.996;2023-08-24T05:05:31;18.70;99.90
20690;DHT22;10504;48.762;8.996;2023-08-24T05:07:58;18.70;99.90
20690;DHT22;10504;48.762;8.996;2023-08-24T05:10:24;18.70;99.90
20690;DHT22;10504;48.762;8.996;2023-08-24T05:12:50;18.70;99.90
20690;DHT22;10504;48.762;8.996;2023-08-24T05:15:16;18.70;99.90
20690;DHT22;10504;48.762;8.996;2023-08-24T05:17:41;18.80;99.90
20690;DHT22;10504;48.762;8.996;2023-08-24T05:20:07;18.80;99.90
20690;DHT22;10504;48.762;8.996;2023-08-24T05:22:34;18.80;99.90
20690;DHT22;10504;48.762;8.996;2023-08-24T05:25:00;18.90;99.90
20690;DHT22;10504;48.762;8.996;2023-08-24T05:27:26;18.90;99.90
20690;DHT22;10504;48.762;8.996;2023-08-24T05:29:51;18.90;99.90
20690;DHT22;10504;48.762;8.996;2023-08-24T05:32:17;18.90;99.90
20690;DHT22;10504;48.762;8.996;2023-08-24T05:34:43;19.00;99.90
20690;DHT22;10504;48.762;8.996;2023-08-24T05:37:10;19.00;99.90
20690;DHT22;10504;48.762;8.996;2023-08-24T05:39:35;18.90;99.90
20690;DHT22;10504;48.762;8.996;2023-08-24T05:42:01;18.90;99.90
20690;DHT22;10504;48.762;8.996;2023-08-24T05:44:27;18.90;99.90
20690;DHT22;10504;48.762;8.996;2023-08-24T05:46:52;18.90;99.90
20690;DHT22;10504;48.762;8.996;2023-08-24T05:49:18;18.90;99.90
20690;DHT22;10504;48.762;8.996;2023-08-24T05:51:43;18.90;99.90
20690;DHT22;10504;48.762;8.996;2023-08-24T05:54:09;19.00;99.90
20690;DHT22;10504;48.762;8.996;2023-08-24T05:56:35;19.10;99.90
20690;DHT22;10504;48.762;8.996;2023-08-24T05:59:00;19.10;99.90
20690;DHT22;10504;48.762;8.996;2023-08-24T06:01:26;19.10;99.90
20690;DHT22;10504;48.762;8.996;2023-08-24T06:03:52;19.10;99.90
20690;DHT22;10504;48.762;8.996;2023-08-24T06:06:17;19.20;99.90
20690;DHT22;10504;48.762;8.996;2023-08-24T06:08:43;19.20;99.90
20690;DHT22;10504;48.762;8.996;2023-08-24T06:11:09;19.30;99.90
20690;DHT22;10504;48.762;8.996;2023-08-24T06:13:35;19.30;99.90
20690;DHT22;10504;48.762;8.996;2023-08-24T06:16:00;19.40;99.90
20690;DHT22;10504;48.762;8.996;2023-08-24T06:18:27;19.40;99.90
20690;DHT22;10504;48.762;8.996;2023-08-24T06:20:53;19.40;99.90
20690;DHT22;10504;48.762;8.996;2023-08-24T06:23:19;19.50;99.90
20690;DHT22;10504;48.762;8.996;2023-08-24T06:25:45;19.50;99.90
20690;DHT22;10504;48.762;8.996;2023-08-24T06:28:11;19.50;99.90
20690;DHT22;10504;48.762;8.996;2023-08-24T06:30:38;19.50;99.90
20690;DHT22;10504;48.762;8.996;2023-08-24T06:33:05;19.50;99.90
20690;DHT22;10504;48.762;8.996;2023-08-24T06:35:32;19.50;99.90
20690;DHT22;10504;48.762;8.996;2023-08-24T06:37:58;19.60;99.90
20690;DHT22;10504;48.762;8.996;2023-08-24T06:40:24;19.60;99.90
20690;DHT22;10504;48.762;8.996;2023-08-24T06:42:49;19.60;99.90
20690;DHT22;10504;48.762;8.996;2023-08-24T06:45:15;19.70;99.90
20690;DHT22;10504;48.762;8.996;2023-08-24T06:47:42;19.70;99.90
20690;DHT22;10504;48.762;8.996;2023-08-24T06:50:08;19.70;99.90
20690;DHT22;10504;48.762;8.996;2023-08-24T06:52:34;19.70;99.90
20690;DHT22;10504;48.762;8.996;2023-08-24T06:54:59;19.70;99.90
20690;DHT22;10504;48.762;8.996;2023-08-24T06:57:26;19.70;99.90
20690;DHT22;10504;48.762;8.996;2023-08-24T06:59:51;19.70;99.90
20690;DHT22;10504;48.762;8.996;2023-08-24T07:02:17;19.70;99.90
20690;DHT22;10504;48.762;8.996;2023-08-24T07:04:44;19.80;99.90
20690;DHT22;10504;48.762;8.996;2023-08-24T07:07:10;19.90;99.90
20690;DHT22;10504;48.762;8.996;2023-08-24T07:09:35;19.90;99.90
20690;DHT22;10504;48.762;8.996;2023-08-24T07:12:04;19.90;99.90
20690;DHT22;10504;48.762;8.996;2023-08-24T07:14:33;19.90;99.90
20690;DHT22;10504;48.762;8.996;2023-08-24T07:16:59;20.00;99.90
20690;DHT22;10504;48.762;8.996;2023-08-24T07:19:24;20.00;99.90
20690;DHT22;10504;48.762;8.996;2023-08-24T07:21:50;20.10;99.90
20690;DHT22;10504;48.762;8.996;2023-08-24T07:24:16;20.00;99.90
20690;DHT22;10504;48.762;8.996;2023-08-24T07:26:44;20.00;99.90
20690;DHT22;10504;48.762;8.996;2023-08-24T07:29:10;20.00;99.90
20690;DHT22;10504;48.762;8.996;2023-08-24T07:31:36;20.10;99.90
20690;DHT22;10504;48.762;8.996;2023-08-24T07:34:02;20.00;99.90
20690;DHT22;10504;48.762;8.996;2023-08-24T07:36:29;20.00;99.90
20690;DHT22;10504;48.762;8.996;2023-08-24T07:38:55;20.00;99.90
20690;DHT22;10504;48.762;8.996;2023-08-24T07:41:21;20.00;99.90
20690;DHT22;10504;48.762;8.996;2023-08-24T07:43:47;20.00;99.90
20690;DHT22;10504;48.762;8.996;2023-08-24T07:46:12;20.00;99.90
20690;DHT22;10504;48.762;8.996;2023-08-24T07:48:38;20.00;99.90
20690;DHT22;10504;48.762;8.996;2023-08-24T07:51:03;20.10;99.90
20690;DHT22;10504;48.762;8.996;2023-08-24T07:53:29;20.10;99.90
20690;DHT22;10504;48.762;8.996;2023-08-24T07:55:55;20.10;99.90
20690;DHT22;10504;48.762;8.996;2023-08-24T07:58:24;20.20;99.90
20690;DHT22;10504;48.762;8.996;2023-08-24T08:00:50;20.20;99.90
20690;DHT22;10504;48.762;8.996;2023-08-24T08:03:18;20.20;99.90
20690;DHT22;10504;48.762;8.996;2023-08-24T08:05:44;20.30;99.90
20690;DHT22;10504;48.762;8.996;2023-08-24T08:08:10;20.30;99.90
20690;DHT22;10504;48.762;8.996;2023-08-24T08:10:35;20.40;99.90
20690;DHT22;10504;48.762;8.996;2023-08-24T08:13:01;20.40;99.90
20690;DHT22;10504;48.762;8.996;2023-08-24T08:15:26;20.40;99.90
20690;DHT22;10504;48.762;8.996;2023-08-24T08:17:52;20.50;99.90
20690;DHT22;10504;48.762;8.996;2023-08-24T08:20:18;20.50;99.90
20690;DHT22;10504;48.762;8.996;2023-08-24T08:22:44;20.50;99.90
20690;DHT22;10504;48.762;8.996;2023-08-24T08:25:09;20.50;99.90
20690;DHT22;10504;48.762;8.996;2023-08-24T08:27:35;20.50;99.90
20690;DHT22;10504;48.762;8.996;2023-08-24T08:30:01;20.60;99.90
20690;DHT22;10504;48.762;8.996;2023-08-24T08:32:30;20.50;99.90
20690;DHT22;10504;48.762;8.996;2023-08-24T08:34:56;20.60;99.90
20690;DHT22;10504;48.762;8.996;2023-08-24T08:37:24;20.70;99.90
20690;DHT22;10504;48.762;8.996;2023-08-24T08:39:49;20.70;99.90
20690;DHT22;10504;48.762;8.996;2023-08-24T08:42:15;20.70;99.90
20690;DHT22;10504;48.762;8.996;2023-08-24T08:44:46;20.70;99.90
20690;DHT22;10504;48.762;8.996;2023-08-24T08:47:13;20.70;99.90
20690;DHT22;10504;48.762;8.996;2023-08-24T08:49:39;20.80;99.90
20690;DHT22;10504;48.762;8.996;2023-08-24T08:52:08;20.80;99.90
20690;DHT22;10504;48.762;8.996;2023-08-24T08:54:34;20.80;99.90
20690;DHT22;10504;48.762;8.996;2023-08-24T08:57:01;20.90;99.90
20690;DHT22;10504;48.762;8.996;2023-08-24T08:59:27;21.00;99.90
20690;DHT22;10504;48.762;8.996;2023-08-24T09:02:03;21.00;99.90
20690;DHT22;10504;48.762;8.996;2023-08-24T09:04:31;21.10;99.90
20690;DHT22;10504;48.762;8.996;2023-08-24T09:06:57;21.10;99.90
20690;DHT22;10504;48.762;8.996;2023-08-24T09:09:24;21.20;99.90
20690;DHT22;10504;48.762;8.996;2023-08-24T09:11:50;21.30;99.90
20690;DHT22;10504;48.762;8.996;2023-08-24T09:14:16;21.40;99.90
20690;DHT22;10504;48.762;8.996;2023-08-24T09:16:42;21.40;99.90
20690;DHT22;10504;48.762;8.996;2023-08-24T09:19:11;21.40;99.90
20690;DHT22;10504;48.762;8.996;2023-08-24T09:21:37;21.50;99.90
20690;DHT22;10504;48.762;8.996;2023-08-24T09:24:04;21.60;99.90
20690;DHT22;10504;48.762;8.996;2023-08-24T09:26:31;21.70;99.90
20690;DHT22;10504;48.762;8.996;2023-08-24T09:28:57;21.70;99.90
20690;DHT22;10504;48.762;8.996;2023-08-24T09:31:23;21.70;99.90
20690;DHT22;10504;48.762;8.996;2023-08-24T09:34:00;21.70;99.90
20690;DHT22;10504;48.762;8.996;2023-08-24T09:36:26;21.80;99.90
20690;DHT22;10504;48.762;8.996;2023-08-24T09:38:52;21.80;99.90
20690;DHT22;10504;48.762;8.996;2023-08-24T09:41:17;21.90;99.90
20690;DHT22;10504;48.762;8.996;2023-08-24T09:43:43;22.00;99.90
20690;DHT22;10504;48.762;8.996;2023-08-24T09:46:09;22.00;99.90
20690;DHT22;10504;48.762;8.996;2023-08-24T09:48:34;22.00;99.90
20690;DHT22;10504;48.762;8.996;2023-08-24T09:51:03;22.00;99.90
20690;DHT22;10504;48.762;8.996;2023-08-24T09:53:32;22.10;99.90
20690;DHT22;10504;48.762;8.996;2023-08-24T09:56:00;22.10;99.90
20690;DHT22;10504;48.762;8.996;2023-08-24T09:58:27;22.10;99.90
20690;DHT22;10504;48.762;8.996;2023-08-24T10:00:54;22.10;99.90
20690;DHT22;10504;48.762;8.996;2023-08-24T10:03:27;22.20;99.90
20690;DHT22;10504;48.762;8.996;2023-08-24T10:05:55;22.20;99.90
20690;DHT22;10504;48.762;8.996;2023-08-24T10:08:32;22.20;99.90
20690;DHT22;10504;48.762;8.996;2023-08-24T10:10:59;22.30;99.90
20690;DHT22;10504;48.762;8.996;2023-08-24T10:13:53;22.30;99.90
20690;DHT22;10504;48.762;8.996;2023-08-24T10:16:21;22.40;99.90
20690;DHT22;10504;48.762;8.996;2023-08-24T10:18:48;22.40;99.90
20690;DHT22;10504;48.762;8.996;2023-08-24T10:21:17;22.60;99.90
20690;DHT22;10504;48.762;8.996;2023-08-24T10:23:45;22.70;99.90
20690;DHT22;10504;48.762;8.996;2023-08-24T10:26:12;22.80;99.90
20690;DHT22;10504;48.762;8.996;2023-08-24T10:28:39;22.90;99.90
20690;DHT22;10504;48.762;8.996;2023-08-24T10:31:05;22.90;99.90
20690;DHT22;10504;48.762;8.996;2023-08-24T10:33:32;23.00;99.90
20690;DHT22;10504;48.762;8.996;2023-08-24T10:35:59;23.10;99.90
20690;DHT22;10504;48.762;8.996;2023-08-24T10:38:29;23.20;99.90
20690;DHT22;10504;48.762;8.996;2023-08-24T10:41:02;23.30;99.90
20690;DHT22;10504;48.762;8.996;2023-08-24T10:43:39;23.30;99.90
20690;DHT22;10504;48.762;8.996;2023-08-24T10:46:11;23.40;99.90
20690;DHT22;10504;48.762;8.996;2023-08-24T10:51:16;23.70;99.90
20690;DHT22;10504;48.762;8.996;2023-08-24T10:53:45;23.70;99.90
20690;DHT22;10504;48.762;8.996;2023-08-24T10:56:13;23.80;99.90
20690;DHT22;10504;48.762;8.996;2023-08-24T10:58:39;23.80;99.90
20690;DHT22;10504;48.762;8.996;2023-08-24T11:01:04;23.90;99.90
20690;DHT22;10504;48.762;8.996;2023-08-24T11:03:34;24.00;99.90
20690;DHT22;10504;48.762;8.996;2023-08-24T11:06:00;24.00;99.90
20690;DHT22;10504;48.762;8.996;2023-08-24T11:08:45;24.10;99.90
20690;DHT22;10504;48.762;8.996;2023-08-24T11:11:23;24.10;99.90
20690;DHT22;10504;48.762;8.996;2023-08-24T11:14:14;24.30;99.90
20690;DHT22;10504;48.762;8.996;2023-08-24T11:16:46;24.40;99.90
20690;DHT22;10504;48.762;8.996;2023-08-24T11:19:12;24.60;99.90
20690;DHT22;10504;48.762;8.996;2023-08-24T11:21:43;24.70;99.90
20690;DHT22;10504;48.762;8.996;2023-08-24T11:24:10;24.80;99.90
20690;DHT22;10504;48.762;8.996;2023-08-24T11:26:42;24.90;99.90
20690;DHT22;10504;48.762;8.996;2023-08-24T11:29:08;25.00;99.90
20690;DHT22;10504;48.762;8.996;2023-08-24T11:31:35;25.20;99.90
20690;DHT22;10504;48.762;8.996;2023-08-24T11:34:01;25.30;99.90
20690;DHT22;10504;48.762;8.996;2023-08-24T11:36:26;25.30;99.90
20690;DHT22;10504;48.762;8.996;2023-08-24T11:38:57;25.30;99.90
20690;DHT22;10504;48.762;8.996;2023-08-24T11:41:23;25.40;99.90
20690;DHT22;10504;48.762;8.996;2023-08-24T11:43:53;25.40;99.90
20690;DHT22;10504;48.762;8.996;2023-08-24T11:46:23;25.50;99.90
20690;DHT22;10504;48.762;8.996;2023-08-24T11:48:49;25.70;99.90
20690;DHT22;10504;48.762;8.996;2023-08-24T11:51:15;25.70;99.90
20690;DHT22;10504;48.762;8.996;2023-08-24T11:53:42;25.80;99.90
20690;DHT22;10504;48.762;8.996;2023-08-24T11:56:09;25.80;99.90
20690;DHT22;10504;48.762;8.996;2023-08-24T11:58:41;25.80;99.90
20690;DHT22;10504;48.762;8.996;2023-08-24T12:01:09;25.80;99.90
20690;DHT22;10504;48.762;8.996;2023-08-24T12:03:36;25.80;99.90
20690;DHT22;10504;48.762;8.996;2023-08-24T12:06:02;25.90;99.90
20690;DHT22;10504;48.762;8.996;2023-08-24T12:08:39;25.90;99.90
20690;DHT22;10504;48.762;8.996;2023-08-24T12:11:20;26.00;99.90
20690;DHT22;10504;48.762;8.996;2023-08-24T12:13:51;25.90;99.90
20690;DHT22;10504;48.762;8.996;2023-08-24T12:16:22;25.90;99.90
20690;DHT22;10504;48.762;8.996;2023-08-24T12:18:54;25.90;99.90
20690;DHT22;10504;48.762;8.996;2023-08-24T12:21:24;25.80;99.90
20690;DHT22;10504;48.762;8.996;2023-08-24T12:24:00;25.90;99.90
20690;DHT22;10504;48.762;8.996;2023-08-24T12:26:27;26.00;99.90
20690;DHT22;10504;48.762;8.996;2023-08-24T12:28:53;26.20;99.90
20690;DHT22;10504;48.762;8.996;2023-08-24T12:31:19;26.30;99.90
20690;DHT22;10504;48.762;8.996;2023-08-24T12:33:46;26.50;99.90
20690;DHT22;10504;48.762;8.996;2023-08-24T12:36:22;26.60;99.90
20690;DHT22;10504;48.762;8.996;2023-08-24T12:38:48;26.60;99.90
20690;DHT22;10504;48.762;8.996;2023-08-24T12:41:13;26.60;99.90
20690;DHT22;10504;48.762;8.996;2023-08-24T12:43:39;26.60;99.90
20690;DHT22;10504;48.762;8.996;2023-08-24T12:46:04;26.70;99.90
20690;DHT22;10504;48.762;8.996;2023-08-24T12:48:30;26.80;99.90
20690;DHT22;10504;48.762;8.996;2023-08-24T12:50:55;26.90;99.90
20690;DHT22;10504;48.762;8.996;2023-08-24T12:53:21;27.00;99.90
20690;DHT22;10504;48.762;8.996;2023-08-24T12:55:47;27.10;99.90
20690;DHT22;10504;48.762;8.996;2023-08-24T12:58:12;27.30;99.90
20690;DHT22;10504;48.762;8.996;2023-08-24T13:00:38;27.50;99.90
20690;DHT22;10504;48.762;8.996;2023-08-24T13:03:04;27.60;99.90
20690;DHT22;10504;48.762;8.996;2023-08-24T13:05:29;27.80;99.90
20690;DHT22;10504;48.762;8.996;2023-08-24T13:07:55;27.90;99.90
20690;DHT22;10504;48.762;8.996;2023-08-24T13:10:21;28.00;99.90
20690;DHT22;10504;48.762;8.996;2023-08-24T13:12:47;28.10;99.90
20690;DHT22;10504;48.762;8.996;2023-08-24T13:15:13;28.10;99.90
20690;DHT22;10504;48.762;8.996;2023-08-24T13:17:38;28.00;99.90
20690;DHT22;10504;48.762;8.996;2023-08-24T13:20:05;28.00;99.90
20690;DHT22;10504;48.762;8.996;2023-08-24T13:22:31;28.00;99.90
20690;DHT22;10504;48.762;8.996;2023-08-24T13:24:57;28.00;99.90
20690;DHT22;10504;48.762;8.996;2023-08-24T13:27:23;28.10;99.90
20690;DHT22;10504;48.762;8.996;2023-08-24T13:29:48;28.30;99.90
20690;DHT22;10504;48.762;8.996;2023-08-24T13:32:14;28.40;99.90
20690;DHT22;10504;48.762;8.996;2023-08-24T13:34:40;28.40;99.90
20690;DHT22;10504;48.762;8.996;2023-08-24T13:37:05;28.50;99.90
20690;DHT22;10504;48.762;8.996;2023-08-24T13:39:31;28.50;99.90
20690;DHT22;10504;48.762;8.996;2023-08-24T13:42:01;28.50;99.90
20690;DHT22;10504;48.762;8.996;2023-08-24T13:44:26;28.50;99.90
20690;DHT22;10504;48.762;8.996;2023-08-24T13:46:52;28.60;99.90
20690;DHT22;10504;48.762;8.996;2023-08-24T13:49:21;28.70;99.90
20690;DHT22;10504;48.762;8.996;2023-08-24T13:51:46;28.80;99.90
20690;DHT22;10504;48.762;8.996;2023-08-24T13:54:16;28.80;99.90
20690;DHT22;10504;48.762;8.996;2023-08-24T13:56:43;28.80;99.90
20690;DHT22;10504;48.762;8.996;2023-08-24T13:59:09;28.80;99.90
20690;DHT22;10504;48.762;8.996;2023-08-24T14:01:35;28.80;99.90
20690;DHT22;10504;48.762;8.996;2023-08-24T14:04:03;28.90;99.90
20690;DHT22;10504;48.762;8.996;2023-08-24T14:06:32;29.00;99.90
20690;DHT22;10504;48.762;8.996;2023-08-24T14:09:03;28.90;99.90
20690;DHT22;10504;48.762;8.996;2023-08-24T14:11:29;28.70;99.90
20690;DHT22;10504;48.762;8.996;2023-08-24T14:13:55;28.50;99.90
20690;DHT22;10504;48.762;8.996;2023-08-24T14:16:21;28.20;99.90
20690;DHT22;10504;48.762;8.996;2023-08-24T14:18:47;27.90;99.90
20690;DHT22;10504;48.762;8.996;2023-08-24T14:21:13;27.60;99.90
20690;DHT22;10504;48.762;8.996;2023-08-24T14:23:39;27.40;99.90
20690;DHT22;10504;48.762;8.996;2023-08-24T14:26:05;27.10;99.90
20690;DHT22;10504;48.762;8.996;2023-08-24T14:29:07;26.90;99.90
20690;DHT22;10504;48.762;8.996;2023-08-24T14:31:33;26.70;99.90
20690;DHT22;10504;48.762;8.996;2023-08-24T14:33:58;26.50;99.90
20690;DHT22;10504;48.762;8.996;2023-08-24T14:36:24;26.50;99.90
20690;DHT22;10504;48.762;8.996;2023-08-24T14:38:50;26.30;99.90
20690;DHT22;10504;48.762;8.996;2023-08-24T14:41:17;26.30;99.90
20690;DHT22;10504;48.762;8.996;2023-08-24T14:43:43;26.40;99.90
20690;DHT22;10504;48.762;8.996;2023-08-24T14:46:09;26.50;99.90
20690;DHT22;10504;48.762;8.996;2023-08-24T14:48:34;26.60;99.90
20690;DHT22;10504;48.762;8.996;2023-08-24T14:51:00;26.70;99.90
20690;DHT22;10504;48.762;8.996;2023-08-24T14:53:26;26.20;99.90
20690;DHT22;10504;48.762;8.996;2023-08-24T14:55:53;25.20;99.90
20690;DHT22;10504;48.762;8.996;2023-08-24T14:58:23;24.40;99.90
20690;DHT22;10504;48.762;8.996;2023-08-24T15:00:50;23.80;99.90
20690;DHT22;10504;48.762;8.996;2023-08-24T15:03:16;23.40;99.90
20690;DHT22;10504;48.762;8.996;2023-08-24T15:05:44;23.00;99.90
20690;DHT22;10504;48.762;8.996;2023-08-24T15:08:10;22.80;99.90
20690;DHT22;10504;48.762;8.996;2023-08-24T15:10:39;22.70;99.90
20690;DHT22;10504;48.762;8.996;2023-08-24T15:13:04;22.50;99.90
20690;DHT22;10504;48.762;8.996;2023-08-24T15:15:31;22.50;99.90
20690;DHT22;10504;48.762;8.996;2023-08-24T15:17:57;22.40;99.90
20690;DHT22;10504;48.762;8.996;2023-08-24T15:20:22;22.40;99.90
20690;DHT22;10504;48.762;8.996;2023-08-24T15:22:48;22.40;99.90
20690;DHT22;10504;48.762;8.996;2023-08-24T15:25:14;22.40;99.90
20690;DHT22;10504;48.762;8.996;2023-08-24T15:27:39;22.40;99.90
20690;DHT22;10504;48.762;8.996;2023-08-24T15:30:05;22.40;99.90
20690;DHT22;10504;48.762;8.996;2023-08-24T15:32:31;22.30;99.90
20690;DHT22;10504;48.762;8.996;2023-08-24T15:35:00;22.40;99.90
20690;DHT22;10504;48.762;8.996;2023-08-24T15:37:28;22.30;99.90
20690;DHT22;10504;48.762;8.996;2023-08-24T15:39:55;22.30;99.90